createdAt,value
2022-09-10T00:01:12.757Z,7.68
2022-09-10T00:04:16.155Z,7.03
2022-09-10T00:07:18.708Z,8.80
2022-09-10T00:10:20.895Z,6.70
2022-09-10T00:13:23.517Z,8.50
2022-09-10T00:16:27.734Z,8.88
2022-09-10T00:19:31.408Z,7.20
2022-09-10T00:22:34.440Z,7.57
2022-09-10T00:25:36.676Z,6.70
2022-09-10T00:28:38.796Z,10.02
2022-09-10T00:31:40.773Z,9.38
2022-09-10T00:34:42.737Z,6.95
2022-09-10T00:37:44.540Z,6.95
2022-09-10T00:40:49.017Z,8.18
2022-09-10T00:43:58.283Z,9.95
2022-09-10T00:47:00.424Z,7.15
2022-09-10T00:50:23.733Z,10.60
2022-09-10T00:53:30.712Z,7.43
2022-09-10T00:56:34.308Z,8.55
2022-09-10T00:59:36.494Z,7.63
2022-09-10T01:02:38.605Z,10.88
2022-09-10T01:05:44.189Z,10.40
2022-09-10T01:08:46.053Z,7.72
2022-09-10T01:12:04.403Z,11.13
2022-09-10T01:15:29.270Z,7.38
2022-09-10T01:18:53.598Z,11.32
2022-09-10T01:22:57.579Z,7.80
2022-09-10T01:26:27.826Z,8.32
2022-09-10T01:29:39.648Z,7.93
2022-09-10T01:32:50.693Z,7.38
2022-09-10T01:36:00.027Z,8.00
2022-09-10T01:39:03.016Z,7.05
2022-09-10T01:42:05.347Z,7.40
2022-09-10T01:45:08.101Z,6.07
2022-09-10T01:48:55.260Z,9.88
2022-09-10T01:52:32.010Z,6.90
2022-09-10T01:55:38.073Z,7.85
2022-09-10T01:58:43.227Z,10.05
2022-09-10T02:01:52.732Z,5.75
2022-09-10T02:04:56.521Z,6.97
2022-09-10T02:08:03.742Z,9.75
2022-09-10T02:11:09.632Z,7.18
2022-09-10T02:14:14.155Z,8.00
2022-09-10T02:17:17.035Z,8.57
2022-09-10T02:20:19.806Z,8.95
2022-09-10T02:23:28.876Z,7.93
2022-09-10T02:26:30.916Z,8.00
2022-09-10T02:29:33.297Z,7.07
2022-09-10T02:32:35.121Z,8.07
2022-09-10T02:35:36.992Z,8.57
2022-09-10T02:38:38.851Z,7.22
2022-09-10T02:41:41.613Z,7.10
2022-09-10T02:44:44.448Z,7.13
2022-09-10T02:47:46.300Z,7.63
2022-09-10T02:50:48.422Z,8.30
2022-09-10T02:53:50.448Z,7.38
2022-09-10T02:56:52.257Z,7.55
2022-09-10T02:59:54.235Z,8.48
2022-09-10T03:03:00.950Z,7.95
2022-09-10T03:06:05.203Z,12.27
2022-09-10T03:09:07.185Z,8.30
2022-09-10T03:12:09.101Z,9.35
2022-09-10T03:15:11.117Z,11.27
2022-09-10T03:18:13.106Z,7.70
2022-09-10T03:21:25.239Z,8.90
2022-09-10T03:24:28.476Z,9.02
2022-09-10T03:27:30.528Z,10.40
2022-09-10T03:30:32.840Z,8.73
2022-09-10T03:33:35.286Z,6.68
2022-09-10T03:36:37.161Z,8.63
2022-09-10T03:39:39.036Z,9.50
2022-09-10T03:42:41.361Z,6.93
2022-09-10T03:45:43.341Z,8.48
2022-09-10T03:48:45.269Z,8.27
2022-09-10T03:51:48.237Z,9.57
2022-09-10T03:54:51.195Z,8.23
2022-09-10T03:57:53.054Z,6.05
2022-09-10T04:00:54.986Z,6.75
2022-09-10T04:03:57.542Z,9.02
2022-09-10T04:06:59.544Z,7.20
2022-09-10T04:10:01.376Z,7.40
2022-09-10T04:13:03.278Z,6.93
2022-09-10T04:16:05.260Z,7.65
2022-09-10T04:19:07.172Z,7.53
2022-09-10T04:22:09.010Z,7.22
2022-09-10T04:25:11.104Z,10.15
2022-09-10T04:28:13.418Z,6.13
2022-09-10T04:31:15.406Z,7.88
2022-09-10T04:34:17.253Z,8.95
2022-09-10T04:37:19.532Z,9.60
2022-09-10T04:40:23.465Z,9.53
2022-09-10T04:43:26.070Z,13.02
2022-09-10T04:46:27.957Z,6.68
2022-09-10T04:49:29.823Z,6.63
2022-09-10T04:52:31.626Z,8.70
2022-09-10T04:55:33.878Z,8.43
2022-09-10T04:58:38.822Z,6.82
2022-09-10T05:01:41.404Z,7.65
2022-09-10T05:04:43.382Z,7.43
2022-09-10T05:07:45.266Z,11.95
2022-09-10T05:10:47.125Z,7.05
2022-09-10T05:13:49.512Z,6.80
2022-09-10T05:16:51.773Z,10.95
2022-09-10T05:19:53.614Z,7.47
2022-09-10T05:22:56.215Z,9.07
2022-09-10T05:25:58.548Z,8.13
2022-09-10T05:29:00.375Z,8.85
2022-09-10T05:32:02.444Z,6.65
2022-09-10T05:35:05.628Z,7.65
2022-09-10T05:38:08.364Z,12.63
2022-09-10T05:41:10.900Z,8.32
2022-09-10T05:44:13.394Z,10.30
2022-09-10T05:47:17.573Z,7.43
2022-09-10T05:50:20.128Z,8.35
2022-09-10T05:53:21.993Z,9.73
2022-09-10T05:56:25.796Z,6.90
2022-09-10T05:59:27.634Z,7.20
2022-09-10T06:02:29.611Z,6.10
2022-09-10T06:05:31.943Z,7.32
2022-09-10T06:08:34.183Z,7.90
2022-09-10T06:11:36.033Z,8.55
2022-09-10T06:14:37.989Z,6.32
2022-09-10T06:17:40.258Z,7.53
2022-09-10T06:20:42.127Z,8.93
2022-09-10T06:23:45.086Z,8.23
2022-09-10T06:26:50.182Z,10.95
2022-09-10T06:29:52.092Z,9.77
2022-09-10T06:32:54.106Z,8.20
2022-09-10T06:35:57.669Z,9.10
2022-09-10T06:38:59.953Z,8.30
2022-09-10T06:42:01.977Z,8.38
2022-09-10T06:45:04.134Z,7.50
2022-09-10T06:48:37.820Z,10.30
2022-09-10T06:51:28.065Z,9.13
2022-09-10T06:54:29.912Z,8.23
2022-09-10T06:57:31.880Z,12.32
2022-09-10T07:00:33.716Z,12.95
2022-09-10T07:03:36.090Z,8.43
2022-09-10T07:06:38.359Z,7.72
2022-09-10T07:09:40.318Z,12.95
2022-09-10T07:12:42.195Z,7.32
2022-09-10T07:15:45.764Z,7.55
2022-09-10T07:18:52.190Z,7.05
2022-09-10T07:21:54.325Z,7.78
2022-09-10T07:24:56.219Z,8.75
2022-09-10T07:27:58.094Z,7.85
2022-09-10T07:30:59.970Z,6.53
2022-09-10T07:34:03.048Z,7.85
2022-09-10T07:37:05.493Z,9.63
2022-09-10T07:40:08.366Z,8.27
2022-09-10T07:43:10.422Z,6.45
2022-09-10T07:46:19.397Z,8.80
2022-09-10T07:49:21.270Z,10.05
2022-09-10T07:52:23.126Z,8.48
2022-09-10T07:55:24.990Z,9.05
2022-09-10T07:58:28.201Z,10.10
2022-09-10T08:01:30.977Z,11.07
2022-09-10T08:04:37.079Z,13.77
2022-09-10T08:07:39.818Z,8.55
2022-09-10T08:10:42.298Z,13.35
2022-09-10T08:13:48.962Z,7.70
2022-09-10T08:16:51.019Z,9.65
2022-09-10T08:19:53.941Z,9.48
2022-09-10T08:22:57.569Z,7.63
2022-09-10T08:25:59.473Z,10.80
2022-09-10T08:29:02.853Z,9.93
2022-09-10T08:32:05.176Z,7.75
2022-09-10T08:35:07.375Z,6.38
2022-09-10T08:38:10.263Z,12.35
2022-09-10T08:41:32.340Z,9.32
2022-09-10T08:44:49.982Z,9.60
2022-09-10T08:48:03.153Z,11.73
2022-09-10T08:51:16.006Z,11.43
2022-09-10T08:54:26.114Z,10.52
2022-09-10T08:57:40.432Z,11.63
2022-09-10T09:00:44.755Z,8.75
2022-09-10T09:03:48.006Z,8.95
2022-09-10T09:09:59.507Z,11.50
2022-09-10T09:13:26.604Z,13.32
2022-09-10T09:16:34.985Z,10.15
2022-09-10T09:19:43.346Z,11.55
2022-09-10T09:22:52.568Z,6.63
2022-09-10T09:25:59.305Z,8.88
2022-09-10T09:29:15.077Z,9.07
2022-09-10T09:32:20.534Z,9.40
2022-09-10T09:35:25.852Z,13.38
2022-09-10T09:38:41.519Z,8.18
2022-09-10T09:41:57.889Z,8.57
2022-09-10T09:45:14.794Z,10.90
2022-09-10T09:48:19.211Z,11.63
2022-09-10T09:51:22.049Z,9.05
2022-09-10T09:58:21.045Z,12.23
2022-09-10T10:01:27.001Z,13.68
2022-09-10T10:04:33.920Z,8.40
2022-09-10T10:07:36.572Z,7.63
2022-09-10T10:10:38.533Z,10.20
2022-09-10T10:13:43.007Z,10.30
2022-09-10T10:16:45.916Z,10.00
2022-09-10T10:20:08.855Z,12.30
2022-09-10T10:23:33.751Z,9.32
2022-09-10T10:26:36.841Z,9.43
2022-09-10T10:29:39.380Z,8.52
2022-09-10T10:32:53.166Z,18.73
2022-09-10T10:36:26.481Z,10.90
2022-09-10T10:40:10.420Z,9.05
2022-09-10T10:43:37.318Z,12.50
2022-09-10T10:46:48.818Z,11.65
2022-09-10T10:50:09.138Z,12.18
2022-09-10T10:53:14.656Z,10.02
2022-09-10T10:56:40.837Z,9.68
2022-09-10T11:00:10.539Z,12.52
2022-09-10T11:03:22.644Z,8.70
2022-09-10T11:06:39.411Z,11.50
2022-09-10T11:09:47.368Z,11.57
2022-09-10T11:13:11.843Z,10.27
2022-09-10T11:16:22.510Z,9.10
2022-09-10T11:19:37.250Z,11.57
2022-09-10T11:22:45.446Z,9.68
2022-09-10T11:25:50.332Z,9.02
2022-09-10T11:29:23.211Z,8.45
2022-09-10T11:32:44.009Z,13.02
2022-09-10T11:36:27.435Z,14.40
2022-09-10T11:39:32.035Z,16.88
2022-09-10T11:42:44.402Z,16.42
2022-09-10T11:45:55.027Z,11.48
2022-09-10T11:49:36.493Z,13.30
2022-09-10T11:52:40.233Z,11.32
2022-09-10T11:55:57.833Z,11.48
2022-09-10T11:59:20.872Z,11.32
2022-09-10T12:02:50.808Z,11.40
2022-09-10T12:06:05.486Z,11.48
2022-09-10T12:09:45.679Z,10.15
2022-09-10T12:12:50.196Z,8.50
2022-09-10T12:15:57.362Z,8.88
2022-09-10T12:19:02.858Z,14.82
2022-09-10T12:22:27.304Z,8.70
2022-09-10T12:25:34.305Z,9.88
2022-09-10T12:28:42.332Z,10.57
2022-09-10T12:32:22.054Z,11.95
2022-09-10T12:35:35.800Z,12.57
2022-09-10T12:39:01.536Z,10.60
2022-09-10T12:42:24.968Z,10.07
2022-09-10T12:46:01.092Z,11.68
2022-09-10T12:49:10.001Z,12.60
2022-09-10T12:52:13.886Z,15.23
2022-09-10T12:55:21.860Z,12.20
2022-09-10T12:58:46.341Z,10.32
2022-09-10T13:01:51.508Z,11.52
2022-09-10T13:04:59.512Z,12.77
2022-09-10T13:08:07.014Z,9.93
2022-09-10T13:11:21.132Z,10.10
2022-09-10T13:14:30.532Z,18.50
2022-09-10T13:17:47.561Z,13.32
2022-09-10T13:20:49.502Z,14.23
2022-09-10T13:23:52.040Z,12.90
2022-09-10T13:27:12.709Z,8.97
2022-09-10T13:30:19.501Z,10.75
2022-09-10T13:33:25.685Z,10.85
2022-09-10T13:36:48.201Z,14.45
2022-09-10T13:40:09.165Z,14.88
2022-09-10T13:44:01.033Z,14.88
2022-09-10T13:47:16.676Z,16.58
2022-09-10T13:50:23.852Z,16.10
2022-09-10T13:53:29.144Z,12.52
2022-09-10T13:56:33.375Z,15.13
2022-09-10T13:59:36.902Z,14.32
2022-09-10T14:02:50.947Z,13.90
2022-09-10T14:06:11.996Z,15.73
2022-09-10T14:09:13.998Z,18.85
2022-09-10T14:12:20.916Z,14.02
2022-09-10T14:15:29.250Z,14.80
2022-09-10T14:18:45.191Z,13.07
2022-09-10T14:21:51.774Z,12.77
2022-09-10T14:25:05.380Z,17.45
2022-09-10T14:28:16.315Z,16.75
2022-09-10T14:31:22.933Z,14.15
2022-09-10T14:34:32.337Z,14.13
2022-09-10T14:37:39.673Z,12.05
2022-09-10T14:40:41.526Z,14.13
2022-09-10T14:43:43.588Z,13.63
2022-09-10T14:46:46.690Z,18.23
2022-09-10T14:49:48.560Z,14.05
2022-09-10T14:52:50.368Z,14.73
2022-09-10T14:55:52.292Z,14.25
2022-09-10T14:58:57.178Z,15.52
2022-09-10T15:02:05.827Z,13.45
2022-09-10T15:05:17.752Z,10.82
2022-09-10T15:08:19.695Z,12.45
2022-09-10T15:11:26.174Z,13.30
2022-09-10T15:14:28.362Z,14.40
2022-09-10T15:17:30.210Z,16.05
2022-09-10T15:32:01.080Z,12.35
2022-09-10T15:35:04.398Z,11.63
2022-09-10T15:41:13.501Z,13.88
2022-09-10T15:44:15.513Z,11.00
2022-09-10T15:47:17.347Z,13.75
2022-09-10T15:50:19.329Z,13.98
2022-09-10T15:53:21.294Z,13.60
2022-09-10T15:56:26.669Z,9.45
2022-09-10T15:59:29.847Z,9.55
2022-09-10T16:02:31.842Z,10.48
2022-09-10T16:05:35.417Z,10.85
2022-09-10T16:08:37.640Z,11.20
2022-09-10T16:11:41.919Z,10.98
2022-09-10T16:14:45.594Z,10.63
2022-09-10T16:17:47.546Z,12.40
2022-09-10T16:20:49.469Z,11.52
2022-09-10T16:23:53.351Z,13.00
2022-09-10T16:26:55.363Z,7.93
2022-09-10T16:29:57.297Z,15.65
2022-09-10T16:32:59.306Z,9.32
2022-09-10T16:36:05.001Z,11.98
2022-09-10T16:39:12.363Z,10.00
2022-09-10T16:42:14.477Z,9.50
2022-09-10T16:45:17.816Z,11.85
2022-09-10T16:51:24.405Z,11.00
2022-09-10T16:54:26.714Z,9.70
2022-09-10T16:57:28.570Z,12.40
2022-09-10T17:00:30.418Z,9.30
2022-09-10T17:03:32.334Z,10.38
2022-09-10T17:06:35.173Z,11.65
2022-09-10T17:09:37.070Z,10.60
2022-09-10T17:12:38.888Z,11.65
2022-09-10T17:15:42.288Z,9.85
2022-09-10T17:18:44.797Z,10.32
2022-09-10T17:21:51.435Z,10.33
2022-09-10T17:24:53.996Z,13.88
2022-09-10T17:27:56.063Z,11.30
2022-09-10T17:30:58.175Z,16.73
2022-09-10T17:34:00.974Z,10.73
2022-09-10T17:37:02.943Z,11.27
2022-09-10T17:40:05.747Z,9.73
2022-09-10T17:43:08.416Z,12.95
2022-09-10T17:46:15.083Z,11.35
2022-09-10T17:49:17.076Z,11.18
2022-09-10T17:52:18.950Z,9.23
2022-09-10T17:55:20.790Z,12.15
2022-09-10T17:58:22.751Z,13.88
2022-09-10T18:01:30.296Z,14.38
2022-09-10T18:04:32.506Z,10.70
2022-09-10T18:07:34.404Z,10.05
2022-09-10T18:10:36.866Z,15.50
2022-09-10T18:13:39.103Z,13.60
2022-09-10T18:16:41.115Z,12.50
2022-09-10T18:19:43.073Z,15.48
2022-09-10T18:22:44.955Z,14.48
2022-09-10T18:25:49.962Z,10.25
2022-09-10T18:29:00.215Z,6.50
2022-09-10T18:32:02.281Z,11.38
2022-09-10T18:35:04.519Z,11.43
2022-09-10T18:38:06.376Z,11.80
2022-09-10T18:41:21.369Z,11.60
2022-09-10T18:44:26.189Z,9.00
2022-09-10T18:47:44.010Z,8.00
2022-09-10T18:50:47.387Z,9.75
2022-09-10T18:53:53.179Z,11.20
2022-09-10T18:56:55.078Z,9.95
2022-09-10T18:59:57.222Z,11.18
2022-09-10T19:02:59.080Z,10.25
2022-09-10T19:06:06.076Z,11.60
2022-09-10T19:09:11.010Z,8.98
2022-09-10T19:12:17.401Z,8.57
2022-09-10T19:15:21.029Z,7.93
2022-09-10T19:18:23.052Z,10.65
2022-09-10T19:21:26.481Z,11.48
2022-09-10T19:24:51.071Z,10.60
2022-09-10T19:27:52.843Z,10.43
2022-09-10T19:30:55.056Z,9.55
2022-09-10T19:33:59.831Z,10.75
2022-09-10T19:37:01.907Z,12.35
2022-09-10T19:40:04.129Z,10.25
2022-09-10T19:43:06.163Z,13.18
2022-09-10T19:46:12.796Z,9.82
2022-09-10T19:49:14.935Z,11.10
2022-09-10T19:52:17.186Z,11.30
2022-09-10T19:55:20.432Z,10.60
2022-09-10T20:01:33.090Z,7.95
2022-09-10T20:04:35.732Z,13.27
2022-09-10T20:07:37.640Z,9.43
2022-09-10T20:10:39.517Z,11.25
2022-09-10T20:13:41.810Z,9.60
2022-09-10T20:16:45.378Z,8.57
2022-09-10T20:19:47.748Z,10.25
2022-09-10T20:22:51.600Z,8.53
2022-09-10T20:25:53.485Z,13.43
2022-09-10T20:29:05.216Z,12.10
2022-09-10T20:32:07.121Z,11.13
2022-09-10T20:35:10.318Z,11.07
2022-09-10T20:38:12.885Z,11.75
2022-09-10T20:41:15.901Z,8.77
2022-09-10T20:44:18.448Z,9.25
2022-09-10T20:47:20.275Z,10.25
2022-09-10T20:50:22.602Z,11.18
2022-09-10T20:53:25.489Z,9.90
2022-09-10T20:56:27.584Z,13.25
2022-09-10T20:59:30.526Z,10.77
2022-09-10T21:02:32.699Z,14.02
2022-09-10T21:05:34.678Z,11.77
2022-09-10T21:08:38.284Z,13.35
2022-09-10T21:11:40.517Z,12.65
2022-09-10T21:14:42.385Z,13.68
2022-09-10T21:17:45.017Z,11.35
2022-09-10T21:20:47.270Z,12.48
2022-09-10T21:23:54.016Z,12.25
2022-09-10T21:26:56.393Z,14.55
2022-09-10T21:29:58.913Z,14.33
2022-09-10T21:33:00.775Z,17.37
2022-09-10T21:36:07.938Z,13.40
2022-09-10T21:39:17.717Z,13.10
2022-09-10T21:42:19.952Z,14.10
2022-09-10T21:45:26.059Z,15.27
2022-09-10T21:48:29.242Z,19.15
2022-09-10T21:51:31.250Z,16.00
2022-09-10T21:54:33.065Z,13.30
2022-09-10T21:57:34.966Z,21.13
2022-09-10T22:00:36.801Z,14.57
2022-09-10T22:03:39.349Z,18.38
2022-09-10T22:06:41.574Z,18.60
2022-09-10T22:09:43.557Z,15.88
2022-09-10T22:12:46.360Z,15.75
2022-09-10T22:15:51.571Z,18.10
2022-09-10T22:18:56.232Z,18.42
2022-09-10T22:21:58.588Z,20.15
2022-09-10T22:25:01.390Z,15.38
2022-09-10T22:28:03.809Z,19.30
2022-09-10T22:31:11.441Z,19.23
2022-09-10T22:34:15.613Z,16.38
2022-09-10T22:37:17.951Z,19.83
2022-09-10T22:40:20.224Z,17.88
2022-09-10T22:43:22.077Z,16.80
2022-09-10T22:46:24.203Z,17.77
2022-09-10T22:49:26.234Z,18.27
2022-09-10T22:52:32.814Z,17.42
2022-09-10T22:55:34.898Z,20.00
2022-09-10T22:58:37.292Z,17.63
2022-09-10T23:01:39.395Z,17.17
2022-09-10T23:04:42.708Z,20.73
2022-09-10T23:10:46.553Z,22.15
2022-09-10T23:14:01.454Z,16.08
2022-09-10T23:17:04.093Z,21.23
2022-09-10T23:20:07.189Z,16.13
2022-09-10T23:23:09.039Z,16.85
2022-09-10T23:26:11.404Z,18.08
2022-09-10T23:29:16.952Z,16.80
2022-09-10T23:32:18.808Z,21.80
2022-09-10T23:35:20.686Z,16.83
2022-09-10T23:38:22.988Z,16.27
2022-09-10T23:41:25.092Z,16.13
2022-09-10T23:44:27.160Z,16.10
2022-09-10T23:47:29.057Z,13.98
2022-09-10T23:50:30.978Z,14.52
2022-09-10T23:53:33.115Z,17.30
2022-09-10T23:56:35.300Z,12.73
2022-09-10T23:59:37.234Z,15.10
